Terminal Aerodrome Forecast
Issued by NWS

Home | Current Version | Previous Version | Text Only | Print | Product List | Glossary On
Versions: 1 2 3 4 5 6 7 8 9 10 11 12 13 14 15 16 17 18 19 20 21 22 23 24 25
000
FTUS42 KRAH 251121
TAFRWI
TAF
KRWI 251121Z 2512/2612 20008KT P6SM FEW020 SCT080
      TEMPO 2512/2514 BKN015
     FM251600 22015G25KT 6SM -SHRAGS BKN045
      TEMPO 2518/2522 26020G35KT TSRAGS SCT025 BKN045CB OVC100
     FM260000 26005KT P6SM BKN100=

USA.gov is the U.S. government's official web portal to all federal, state and local government web resources and services.